createdAt,value
2023-06-28T00:00:35.190Z,810.00
2023-06-28T00:01:35.229Z,814.00
2023-06-28T00:02:35.175Z,803.00
2023-06-28T00:03:35.261Z,796.00
2023-06-28T00:04:35.209Z,793.00
2023-06-28T00:05:35.212Z,780.00
2023-06-28T00:06:35.220Z,787.00
2023-06-28T00:07:35.332Z,781.00
2023-06-28T00:08:35.245Z,784.00
2023-06-28T00:09:35.230Z,770.00
2023-06-28T00:10:35.237Z,768.00
2023-06-28T00:11:35.262Z,775.00
2023-06-28T00:12:35.248Z,775.00
2023-06-28T00:13:35.261Z,784.00
2023-06-28T00:14:35.280Z,780.00
2023-06-28T00:15:35.309Z,783.00
2023-06-28T00:16:35.311Z,796.00
2023-06-28T00:17:35.371Z,791.00
2023-06-28T00:18:35.323Z,794.00
2023-06-28T00:19:35.346Z,805.00
2023-06-28T00:20:35.317Z,809.00
2023-06-28T00:21:35.336Z,812.00
2023-06-28T00:22:36.380Z,812.00
2023-06-28T00:23:35.323Z,814.00
2023-06-28T00:24:35.294Z,819.00
2023-06-28T00:25:35.285Z,827.00
2023-06-28T00:26:35.278Z,825.00
2023-06-28T00:27:35.254Z,821.00
2023-06-28T00:28:35.244Z,814.00
2023-06-28T00:29:35.259Z,808.00
2023-06-28T00:30:35.276Z,813.00
2023-06-28T00:31:35.338Z,805.00
2023-06-28T00:32:35.370Z,805.00
2023-06-28T00:33:35.250Z,815.00
2023-06-28T00:34:35.210Z,796.00
2023-06-28T00:35:35.220Z,798.00
2023-06-28T00:36:35.209Z,796.00
2023-06-28T00:37:35.213Z,796.00
2023-06-28T00:38:35.192Z,804.00
2023-06-28T00:39:35.203Z,790.00
2023-06-28T00:40:35.208Z,804.00
2023-06-28T00:41:35.175Z,798.00
2023-06-28T00:42:35.161Z,808.00
2023-06-28T00:43:35.174Z,798.00
2023-06-28T00:44:35.155Z,808.00
2023-06-28T00:45:35.160Z,814.00
2023-06-28T00:46:35.160Z,818.00
2023-06-28T00:47:35.163Z,817.00
2023-06-28T00:48:35.126Z,818.00
2023-06-28T00:49:35.127Z,818.00
2023-06-28T00:50:35.133Z,826.00
2023-06-28T00:51:35.095Z,813.00
2023-06-28T00:52:35.195Z,815.00
2023-06-28T00:53:35.114Z,815.00
2023-06-28T00:54:35.188Z,816.00
2023-06-28T00:55:35.150Z,827.00
2023-06-28T00:56:35.164Z,812.00
2023-06-28T00:57:35.199Z,820.00
2023-06-28T00:58:35.224Z,823.00
2023-06-28T00:59:35.219Z,827.00
2023-06-28T01:00:35.262Z,836.00
2023-06-28T01:01:35.273Z,842.00
2023-06-28T01:02:35.434Z,845.00
2023-06-28T01:03:35.410Z,839.00
2023-06-28T01:04:35.346Z,851.00
2023-06-28T01:05:35.382Z,868.00
2023-06-28T01:06:35.366Z,872.00
2023-06-28T01:07:35.485Z,872.00
2023-06-28T01:08:35.423Z,872.00
2023-06-28T01:09:35.462Z,884.00
2023-06-28T01:10:35.520Z,890.00
2023-06-28T01:11:35.529Z,894.00
2023-06-28T01:12:35.556Z,886.00
2023-06-28T01:13:35.572Z,897.00
2023-06-28T01:14:35.608Z,900.00
2023-06-28T01:15:35.644Z,901.00
2023-06-28T01:16:35.637Z,901.00
2023-06-28T01:17:35.865Z,904.00
2023-06-28T01:18:35.703Z,904.00
2023-06-28T01:19:35.772Z,901.00
2023-06-28T01:20:35.778Z,904.00
2023-06-28T01:21:35.796Z,922.00
2023-06-28T01:22:35.810Z,929.00
2023-06-28T01:23:35.888Z,918.00
2023-06-28T01:24:35.915Z,915.00
2023-06-28T01:25:35.934Z,922.00
2023-06-28T01:26:35.943Z,918.00
2023-06-28T01:27:35.988Z,920.00
2023-06-28T01:28:36.032Z,926.00
2023-06-28T01:29:36.065Z,936.00
2023-06-28T01:30:36.103Z,927.00
2023-06-28T01:31:36.107Z,922.00
2023-06-28T01:32:36.153Z,919.00
2023-06-28T01:33:36.218Z,915.00
2023-06-28T01:34:36.213Z,909.00
2023-06-28T01:35:36.259Z,906.00
2023-06-28T01:36:36.289Z,898.00
2023-06-28T01:37:36.301Z,907.00
2023-06-28T01:38:36.374Z,894.00
2023-06-28T01:39:36.385Z,908.00
2023-06-28T01:40:36.434Z,911.00
2023-06-28T01:41:36.483Z,910.00
2023-06-28T01:42:36.487Z,912.00
2023-06-28T01:43:36.560Z,913.00
2023-06-28T01:44:36.568Z,919.00
2023-06-28T01:45:36.650Z,930.00
2023-06-28T01:46:36.630Z,924.00
2023-06-28T01:47:36.790Z,924.00
2023-06-28T01:48:36.718Z,936.00
2023-06-28T01:49:36.742Z,925.00
2023-06-28T01:50:36.803Z,912.00
2023-06-28T01:51:36.881Z,906.00
2023-06-28T01:52:36.912Z,910.00
2023-06-28T01:53:36.910Z,908.00
2023-06-28T01:54:36.971Z,923.00
2023-06-28T01:55:37.056Z,896.00
2023-06-28T01:56:37.077Z,873.00
2023-06-28T01:57:37.108Z,871.00
2023-06-28T01:58:37.164Z,846.00
2023-06-28T01:59:37.202Z,839.00
2023-06-28T02:00:38.102Z,831.00
2023-06-28T02:01:37.296Z,826.00
2023-06-28T02:02:37.418Z,828.00
2023-06-28T02:03:37.397Z,831.00
2023-06-28T02:04:37.440Z,822.00
2023-06-28T02:05:37.454Z,794.00
2023-06-28T02:06:37.505Z,794.00
2023-06-28T02:07:37.546Z,781.00
2023-06-28T02:08:37.680Z,762.00
2023-06-28T02:09:37.625Z,746.00
2023-06-28T02:10:37.688Z,734.00
2023-06-28T02:11:37.728Z,739.00
2023-06-28T02:12:37.766Z,754.00
2023-06-28T02:13:37.820Z,752.00
2023-06-28T02:14:37.889Z,730.00
2023-06-28T02:15:37.925Z,721.00
2023-06-28T02:16:38.004Z,718.00
2023-06-28T02:17:38.043Z,696.00
2023-06-28T02:18:38.049Z,681.00
2023-06-28T02:19:38.119Z,671.00
2023-06-28T02:20:38.199Z,676.00
2023-06-28T02:21:38.219Z,661.00
2023-06-28T02:22:38.265Z,664.00
2023-06-28T02:23:38.333Z,655.00
2023-06-28T02:24:38.370Z,652.00
2023-06-28T02:25:38.419Z,658.00
2023-06-28T02:26:38.491Z,646.00
2023-06-28T02:27:38.528Z,652.00
2023-06-28T02:28:38.572Z,650.00
2023-06-28T02:29:38.606Z,646.00
2023-06-28T02:30:38.659Z,642.00
2023-06-28T02:31:38.750Z,643.00
2023-06-28T02:32:38.752Z,641.00
2023-06-28T02:33:38.820Z,640.00
2023-06-28T02:34:38.894Z,642.00
2023-06-28T02:35:38.931Z,636.00
2023-06-28T02:36:38.966Z,644.00
2023-06-28T02:37:39.041Z,639.00
2023-06-28T02:38:39.108Z,643.00
2023-06-28T02:39:39.202Z,650.00
2023-06-28T02:40:39.214Z,647.00
2023-06-28T02:41:39.312Z,651.00
2023-06-28T02:42:39.336Z,649.00
2023-06-28T02:43:39.386Z,655.00
2023-06-28T02:44:39.484Z,657.00
2023-06-28T02:45:39.549Z,661.00
2023-06-28T02:46:39.670Z,665.00
2023-06-28T02:47:39.800Z,679.00
2023-06-28T02:48:39.701Z,697.00
2023-06-28T02:49:39.724Z,701.00
2023-06-28T02:50:39.952Z,713.00
2023-06-28T02:51:39.840Z,722.00
2023-06-28T02:52:39.819Z,730.00
2023-06-28T02:53:39.801Z,750.00
2023-06-28T02:54:39.865Z,756.00
2023-06-28T02:55:39.846Z,755.00
2023-06-28T02:56:39.886Z,756.00
2023-06-28T02:57:39.835Z,757.00
2023-06-28T02:58:39.848Z,777.00
2023-06-28T02:59:39.833Z,799.00
2023-06-28T03:00:40.106Z,814.00
2023-06-28T03:01:39.852Z,814.00
2023-06-28T03:02:39.930Z,824.00
2023-06-28T03:03:39.922Z,841.00
2023-06-28T03:04:39.834Z,856.00
2023-06-28T03:05:39.867Z,843.00
2023-06-28T03:06:39.846Z,857.00
2023-06-28T03:07:39.937Z,885.00
2023-06-28T03:08:39.819Z,887.00
2023-06-28T03:09:39.854Z,882.00
2023-06-28T03:10:40.266Z,891.00
2023-06-28T03:11:39.847Z,890.00
2023-06-28T03:12:39.803Z,899.00
2023-06-28T03:13:39.855Z,911.00
2023-06-28T03:14:39.834Z,895.00
2023-06-28T03:15:39.832Z,890.00
2023-06-28T03:16:39.844Z,915.00
2023-06-28T03:17:39.883Z,917.00
2023-06-28T03:18:39.856Z,922.00
2023-06-28T03:19:39.841Z,920.00
2023-06-28T03:20:39.960Z,928.00
2023-06-28T03:21:39.904Z,924.00
2023-06-28T03:22:39.896Z,911.00
2023-06-28T03:23:39.929Z,920.00
2023-06-28T03:24:39.891Z,906.00
2023-06-28T03:25:39.926Z,919.00
2023-06-28T03:26:39.958Z,922.00
2023-06-28T03:27:39.938Z,906.00
2023-06-28T03:28:39.955Z,899.00
2023-06-28T03:29:39.951Z,895.00
2023-06-28T03:30:40.202Z,886.00
2023-06-28T03:31:40.042Z,881.00
2023-06-28T03:32:40.036Z,879.00
2023-06-28T03:33:40.028Z,885.00
2023-06-28T03:34:40.020Z,898.00
2023-06-28T03:35:40.054Z,905.00
2023-06-28T03:36:47.506Z,895.00
2023-06-28T03:37:41.029Z,896.00
2023-06-28T03:38:40.043Z,898.00
2023-06-28T03:39:40.041Z,900.00
2023-06-28T03:40:40.285Z,897.00
2023-06-28T03:41:40.027Z,897.00
2023-06-28T03:42:39.992Z,913.00
2023-06-28T03:43:40.006Z,913.00
2023-06-28T03:44:39.997Z,921.00
2023-06-28T03:45:39.981Z,924.00
2023-06-28T03:46:40.072Z,929.00
2023-06-28T03:47:40.062Z,913.00
2023-06-28T03:48:39.999Z,929.00
2023-06-28T03:49:39.949Z,903.00
2023-06-28T03:50:40.193Z,919.00
2023-06-28T03:51:39.943Z,912.00
2023-06-28T03:52:39.957Z,911.00
2023-06-28T03:53:39.947Z,910.00
2023-06-28T03:54:39.915Z,915.00
2023-06-28T03:55:39.924Z,896.00
2023-06-28T03:56:39.903Z,911.00
2023-06-28T03:57:39.921Z,904.00
2023-06-28T03:58:39.907Z,893.00
2023-06-28T03:59:39.895Z,926.00
2023-06-28T04:00:40.105Z,921.00
2023-06-28T04:01:39.875Z,933.00
2023-06-28T04:02:40.106Z,939.00
2023-06-28T04:03:40.073Z,941.00
2023-06-28T04:04:39.984Z,944.00
2023-06-28T04:05:39.991Z,937.00
2023-06-28T04:06:40.062Z,932.00
2023-06-28T04:07:40.203Z,941.00
2023-06-28T04:08:40.076Z,943.00
2023-06-28T04:09:40.157Z,933.00
2023-06-28T04:10:40.333Z,958.00
2023-06-28T04:11:40.187Z,946.00
2023-06-28T04:12:40.223Z,948.00
2023-06-28T04:13:40.246Z,959.00
2023-06-28T04:14:40.301Z,949.00
2023-06-28T04:15:40.378Z,948.00
2023-06-28T04:16:40.351Z,957.00
2023-06-28T04:17:40.449Z,960.00
2023-06-28T04:18:40.444Z,939.00
2023-06-28T04:19:40.493Z,970.00
2023-06-28T04:20:40.817Z,985.00
2023-06-28T04:21:40.534Z,977.00
2023-06-28T04:22:40.609Z,970.00
2023-06-28T04:23:40.608Z,962.00
2023-06-28T04:24:40.683Z,966.00
2023-06-28T04:25:40.711Z,982.00
2023-06-28T04:26:40.754Z,970.00
2023-06-28T04:27:40.778Z,981.00
2023-06-28T04:28:40.823Z,978.00
2023-06-28T04:29:40.858Z,988.00
2023-06-28T04:30:41.283Z,1001.00
2023-06-28T04:31:40.960Z,1013.00
2023-06-28T04:32:40.981Z,995.00
2023-06-28T04:33:41.000Z,974.00
2023-06-28T04:34:41.066Z,962.00
2023-06-28T04:35:41.074Z,977.00
2023-06-28T04:36:41.185Z,972.00
2023-06-28T04:37:41.172Z,989.00
2023-06-28T04:38:41.208Z,992.00
2023-06-28T04:39:41.251Z,1007.00
2023-06-28T04:40:41.571Z,1010.00
2023-06-28T04:41:41.301Z,1015.00
2023-06-28T04:42:41.335Z,1014.00
2023-06-28T04:43:41.839Z,1002.00
2023-06-28T04:44:41.410Z,1018.00
2023-06-28T04:45:41.498Z,1024.00
2023-06-28T04:46:41.507Z,1024.00
2023-06-28T04:47:41.519Z,1020.00
2023-06-28T04:48:41.573Z,1033.00
2023-06-28T04:49:41.565Z,1057.00
2023-06-28T04:50:41.856Z,1053.00
2023-06-28T04:51:41.678Z,1039.00
2023-06-28T04:52:41.718Z,1050.00
2023-06-28T04:53:41.777Z,1038.00
2023-06-28T04:54:41.850Z,1045.00
2023-06-28T04:55:41.916Z,1028.00
2023-06-28T04:56:41.953Z,1015.00
2023-06-28T04:57:41.994Z,1032.00
2023-06-28T04:58:42.072Z,1012.00
2023-06-28T04:59:42.104Z,1007.00
2023-06-28T05:00:42.514Z,1021.00
2023-06-28T05:01:42.308Z,1008.00
2023-06-28T05:02:42.304Z,1016.00
2023-06-28T05:03:42.318Z,1015.00
2023-06-28T05:04:42.341Z,1020.00
2023-06-28T05:05:42.394Z,1013.00
2023-06-28T05:06:42.446Z,1021.00
2023-06-28T05:07:42.499Z,1026.00
2023-06-28T05:08:42.476Z,1033.00
2023-06-28T05:09:42.511Z,1044.00
2023-06-28T05:10:42.792Z,1026.00
2023-06-28T05:11:42.640Z,1031.00
2023-06-28T05:12:42.666Z,1023.00
2023-06-28T05:13:42.725Z,1042.00
2023-06-28T05:14:42.772Z,1041.00
2023-06-28T05:15:42.809Z,1025.00
2023-06-28T05:16:42.844Z,1025.00
2023-06-28T05:17:42.923Z,1038.00
2023-06-28T05:18:42.946Z,1052.00
2023-06-28T05:19:43.014Z,1065.00
2023-06-28T05:20:43.265Z,1076.00
2023-06-28T05:21:43.055Z,1086.00
2023-06-28T05:22:43.135Z,1072.00
2023-06-28T05:23:43.149Z,1086.00
2023-06-28T05:24:43.218Z,1084.00
2023-06-28T05:25:43.265Z,1117.00
2023-06-28T05:26:43.299Z,1104.00
2023-06-28T05:27:43.364Z,1108.00
2023-06-28T05:28:43.446Z,1113.00
2023-06-28T05:29:43.430Z,1140.00
2023-06-28T05:30:43.789Z,1175.00
2023-06-28T05:31:43.584Z,1152.00
2023-06-28T05:32:43.636Z,1150.00
2023-06-28T05:33:43.616Z,1150.00
2023-06-28T05:34:43.645Z,1165.00
2023-06-28T05:35:43.817Z,1167.00
2023-06-28T05:36:43.751Z,1169.00
2023-06-28T05:37:43.789Z,1168.00
2023-06-28T05:38:44.684Z,1174.00
2023-06-28T05:39:43.886Z,1164.00
2023-06-28T05:40:44.152Z,1162.00
2023-06-28T05:41:43.996Z,1170.00
2023-06-28T05:42:44.004Z,1151.00
2023-06-28T05:43:44.088Z,1152.00
2023-06-28T05:44:44.092Z,1151.00
2023-06-28T05:45:44.177Z,1142.00
2023-06-28T05:46:44.173Z,1145.00
2023-06-28T05:47:44.312Z,1154.00
2023-06-28T05:48:44.342Z,1158.00
2023-06-28T05:49:44.356Z,1152.00
2023-06-28T05:50:45.993Z,1158.00
2023-06-28T05:51:44.455Z,1149.00
2023-06-28T05:52:44.462Z,1163.00
2023-06-28T05:53:44.529Z,1148.00
2023-06-28T05:54:44.577Z,1141.00
2023-06-28T05:55:44.633Z,1144.00
2023-06-28T05:56:44.685Z,1137.00
2023-06-28T05:57:44.787Z,1142.00
2023-06-28T05:58:44.841Z,1148.00
2023-06-28T05:59:44.874Z,1146.00
2023-06-28T06:00:45.169Z,1154.00
2023-06-28T06:01:44.980Z,1154.00
2023-06-28T06:02:45.072Z,1169.00
2023-06-28T06:03:45.178Z,1158.00
2023-06-28T06:04:45.121Z,1160.00
2023-06-28T06:05:45.248Z,1159.00
2023-06-28T06:06:45.256Z,1144.00
2023-06-28T06:07:45.307Z,1137.00
2023-06-28T06:08:45.357Z,1122.00
2023-06-28T06:09:45.446Z,1115.00
2023-06-28T06:10:45.492Z,1114.00
2023-06-28T06:11:45.536Z,1112.00
2023-06-28T06:12:45.645Z,1091.00
2023-06-28T06:13:45.646Z,1095.00
2023-06-28T06:14:45.737Z,1086.00
2023-06-28T06:15:45.813Z,1079.00
2023-06-28T06:16:45.844Z,1079.00
2023-06-28T06:17:45.904Z,1090.00
2023-06-28T06:18:45.936Z,1088.00
2023-06-28T06:19:45.990Z,1070.00
2023-06-28T06:20:46.074Z,1052.00
2023-06-28T06:21:46.083Z,1045.00
2023-06-28T06:22:46.186Z,1044.00
2023-06-28T06:23:46.255Z,1050.00
2023-06-28T06:24:46.250Z,1046.00
2023-06-28T06:25:46.349Z,1044.00
2023-06-28T06:26:46.380Z,1043.00
2023-06-28T06:27:46.471Z,1048.00
2023-06-28T06:28:46.536Z,1051.00
2023-06-28T06:29:46.552Z,1063.00
2023-06-28T06:30:46.896Z,1039.00
2023-06-28T06:31:46.684Z,1039.00
2023-06-28T06:32:46.778Z,1037.00
2023-06-28T06:33:46.818Z,1033.00
2023-06-28T06:34:46.823Z,1039.00
2023-06-28T06:35:46.903Z,1046.00
2023-06-28T06:36:46.955Z,1062.00
2023-06-28T06:37:47.344Z,1058.00
2023-06-28T06:38:47.049Z,1057.00
2023-06-28T06:39:47.133Z,1049.00
2023-06-28T06:40:47.198Z,1049.00
2023-06-28T06:41:47.245Z,1050.00
2023-06-28T06:42:47.289Z,1029.00
2023-06-28T06:43:47.379Z,1006.00
2023-06-28T06:44:47.463Z,991.00
2023-06-28T06:45:47.546Z,988.00
2023-06-28T06:46:47.533Z,986.00
2023-06-28T06:47:47.710Z,1003.00
2023-06-28T06:48:47.678Z,995.00
2023-06-28T06:49:47.748Z,978.00
2023-06-28T06:50:47.837Z,968.00
2023-06-28T06:51:47.885Z,969.00
2023-06-28T06:52:47.937Z,962.00
2023-06-28T06:53:47.994Z,970.00
2023-06-28T06:54:48.061Z,963.00
2023-06-28T06:55:48.128Z,976.00
2023-06-28T06:56:48.184Z,977.00
2023-06-28T06:57:48.207Z,976.00
2023-06-28T06:58:48.296Z,983.00
2023-06-28T06:59:48.336Z,988.00
2023-06-28T07:00:48.448Z,996.00
2023-06-28T07:01:48.484Z,995.00
2023-06-28T07:02:48.509Z,1001.00
2023-06-28T07:03:48.555Z,995.00
2023-06-28T07:04:48.589Z,1000.00
2023-06-28T07:05:48.972Z,1002.00
2023-06-28T07:06:48.728Z,1007.00
2023-06-28T07:07:48.753Z,1016.00
2023-06-28T07:08:48.837Z,1020.00
2023-06-28T07:09:48.866Z,1009.00
2023-06-28T07:10:48.949Z,1013.00
2023-06-28T07:11:48.986Z,1022.00
2023-06-28T07:12:49.066Z,1037.00
2023-06-28T07:13:49.124Z,1015.00
2023-06-28T07:14:49.150Z,1012.00
2023-06-28T07:15:49.267Z,992.00
2023-06-28T07:16:49.293Z,1007.00
2023-06-28T07:17:49.400Z,996.00
2023-06-28T07:18:50.361Z,1014.00
2023-06-28T07:19:49.639Z,1007.00
2023-06-28T07:20:49.643Z,1005.00
2023-06-28T07:21:49.697Z,1043.00
2023-06-28T07:22:49.764Z,1042.00
2023-06-28T07:23:49.825Z,1026.00
2023-06-28T07:24:49.847Z,1013.00
2023-06-28T07:25:49.900Z,1002.00
2023-06-28T07:26:49.927Z,996.00
2023-06-28T07:27:49.964Z,1001.00
2023-06-28T07:28:50.053Z,985.00
2023-06-28T07:29:50.057Z,971.00
2023-06-28T07:30:50.080Z,949.00
2023-06-28T07:31:50.094Z,956.00
2023-06-28T07:32:50.168Z,966.00
2023-06-28T07:33:50.155Z,969.00
2023-06-28T07:34:50.185Z,961.00
2023-06-28T07:35:50.266Z,948.00
2023-06-28T07:36:50.311Z,951.00
2023-06-28T07:37:50.337Z,962.00
2023-06-28T07:38:50.391Z,975.00
2023-06-28T07:39:50.451Z,974.00
2023-06-28T07:40:50.491Z,967.00
2023-06-28T07:41:50.547Z,974.00
2023-06-28T07:42:50.559Z,983.00
2023-06-28T07:43:50.565Z,982.00
2023-06-28T07:44:50.697Z,967.00
2023-06-28T07:45:50.617Z,980.00
2023-06-28T07:46:50.652Z,992.00
2023-06-28T07:47:50.756Z,979.00
2023-06-28T07:48:50.767Z,974.00
2023-06-28T07:49:50.814Z,966.00
2023-06-28T07:50:50.848Z,961.00
2023-06-28T07:51:50.916Z,967.00
2023-06-28T07:52:50.929Z,950.00
2023-06-28T07:53:51.003Z,947.00
2023-06-28T07:54:50.974Z,938.00
2023-06-28T07:55:51.031Z,945.00
2023-06-28T07:56:51.063Z,946.00
2023-06-28T07:57:51.134Z,949.00
2023-06-28T07:58:51.134Z,937.00
2023-06-28T07:59:51.130Z,925.00
2023-06-28T08:00:51.387Z,931.00
2023-06-28T08:01:51.215Z,935.00
2023-06-28T08:02:51.317Z,911.00
2023-06-28T08:03:51.341Z,909.00
2023-06-28T08:04:51.307Z,912.00
2023-06-28T08:05:51.350Z,898.00
2023-06-28T08:06:51.421Z,878.00
2023-06-28T08:07:51.375Z,883.00
2023-06-28T08:08:51.351Z,861.00
2023-06-28T08:09:51.399Z,866.00
2023-06-28T08:10:51.424Z,867.00
2023-06-28T08:11:51.488Z,866.00
2023-06-28T08:12:51.505Z,854.00
2023-06-28T08:13:51.513Z,850.00
2023-06-28T08:14:51.548Z,843.00
2023-06-28T08:15:51.542Z,850.00
2023-06-28T08:16:51.608Z,851.00
2023-06-28T08:17:51.605Z,840.00
2023-06-28T08:18:51.614Z,848.00
2023-06-28T08:19:51.649Z,844.00
2023-06-28T08:20:51.677Z,847.00
2023-06-28T08:21:51.702Z,855.00
2023-06-28T08:22:51.705Z,867.00
2023-06-28T08:23:51.743Z,854.00
2023-06-28T08:24:51.716Z,880.00
2023-06-28T08:25:51.745Z,853.00
2023-06-28T08:26:51.797Z,861.00
2023-06-28T08:27:51.845Z,869.00
2023-06-28T08:28:59.970Z,890.00
2023-06-28T08:29:52.798Z,891.00
2023-06-28T08:30:51.839Z,895.00
2023-06-28T08:31:51.766Z,900.00
2023-06-28T08:32:51.818Z,909.00
2023-06-28T08:33:51.745Z,937.00
2023-06-28T08:34:51.807Z,941.00
2023-06-28T08:35:51.796Z,952.00
2023-06-28T08:36:51.734Z,963.00
2023-06-28T08:37:51.748Z,959.00
2023-06-28T08:38:51.744Z,968.00
2023-06-28T08:39:51.842Z,976.00
2023-06-28T08:40:51.891Z,965.00
2023-06-28T08:41:51.926Z,980.00
2023-06-28T08:42:51.976Z,965.00
2023-06-28T08:43:52.009Z,963.00
2023-06-28T08:44:55.788Z,959.00
2023-06-28T08:45:52.072Z,965.00
2023-06-28T08:46:52.104Z,954.00
2023-06-28T08:47:52.126Z,935.00
2023-06-28T08:48:52.084Z,935.00
2023-06-28T08:49:52.036Z,929.00
2023-06-28T08:50:52.026Z,939.00
2023-06-28T08:51:52.108Z,958.00
2023-06-28T08:52:52.014Z,952.00
2023-06-28T08:53:51.993Z,964.00
2023-06-28T08:54:52.007Z,974.00
2023-06-28T08:55:51.976Z,983.00
2023-06-28T08:57:11.394Z,988.00
2023-06-28T08:57:52.973Z,989.00
2023-06-28T08:58:52.072Z,990.00
2023-06-28T08:59:51.963Z,993.00
2023-06-28T09:00:51.979Z,1002.00
2023-06-28T09:01:51.976Z,1027.00
2023-06-28T09:02:51.998Z,1043.00
2023-06-28T09:03:52.032Z,1049.00
2023-06-28T09:04:51.959Z,1056.00
2023-06-28T09:05:51.951Z,1066.00
2023-06-28T09:06:52.057Z,1072.00
2023-06-28T09:07:52.028Z,1075.00
2023-06-28T09:08:52.115Z,1080.00
2023-06-28T09:09:52.168Z,1093.00
2023-06-28T09:10:52.254Z,1085.00
2023-06-28T09:11:52.316Z,1101.00
2023-06-28T09:12:52.385Z,1113.00
2023-06-28T09:13:52.427Z,1116.00
2023-06-28T09:14:52.522Z,1136.00
2023-06-28T09:15:52.567Z,1125.00
2023-06-28T09:16:52.634Z,1130.00
2023-06-28T09:17:52.768Z,1137.00
2023-06-28T09:18:52.743Z,1136.00
2023-06-28T09:19:52.816Z,1146.00
2023-06-28T09:20:52.943Z,1132.00
2023-06-28T09:21:52.947Z,1123.00
2023-06-28T09:22:52.994Z,1127.00
2023-06-28T09:23:53.158Z,1149.00
2023-06-28T09:24:53.113Z,1141.00
2023-06-28T09:25:53.179Z,1120.00
2023-06-28T09:26:53.235Z,1113.00
2023-06-28T09:27:53.286Z,1109.00
2023-06-28T09:28:53.354Z,1099.00
2023-06-28T09:29:53.395Z,1083.00
2023-06-28T09:30:53.465Z,1076.00
2023-06-28T09:31:53.558Z,1073.00
2023-06-28T09:32:53.646Z,1071.00
2023-06-28T09:33:56.959Z,1067.00
2023-06-28T09:34:53.727Z,1067.00
2023-06-28T09:35:53.718Z,1068.00
2023-06-28T09:36:53.661Z,1069.00
2023-06-28T09:37:53.647Z,1079.00
2023-06-28T09:38:53.614Z,1079.00
2023-06-28T09:39:53.595Z,1094.00
2023-06-28T09:40:53.637Z,1103.00
2023-06-28T09:41:53.615Z,1105.00
2023-06-28T09:42:53.562Z,1102.00
2023-06-28T09:43:53.586Z,1109.00
2023-06-28T09:44:53.630Z,1105.00
2023-06-28T09:45:53.679Z,1110.00
2023-06-28T09:46:53.595Z,1105.00
2023-06-28T09:47:53.576Z,1102.00
2023-06-28T09:48:53.524Z,1116.00
2023-06-28T09:49:53.609Z,1117.00
2023-06-28T09:50:53.513Z,1120.00
2023-06-28T09:51:53.489Z,1116.00
2023-06-28T09:52:53.541Z,1121.00
2023-06-28T09:53:53.606Z,1114.00
2023-06-28T09:54:53.657Z,1121.00
2023-06-28T09:55:53.726Z,1103.00
2023-06-28T09:56:53.752Z,1108.00
2023-06-28T09:57:53.805Z,1113.00
2023-06-28T09:58:53.854Z,1120.00
2023-06-28T09:59:53.948Z,1113.00
2023-06-28T10:00:53.956Z,1118.00
2023-06-28T10:01:54.003Z,1124.00
2023-06-28T10:02:54.321Z,1131.00
2023-06-28T10:03:54.515Z,1134.00
2023-06-28T10:04:54.236Z,1118.00
2023-06-28T10:05:54.194Z,1129.00
2023-06-28T10:06:54.318Z,1112.00
2023-06-28T10:07:54.278Z,1089.00
2023-06-28T10:08:55.123Z,1108.00
2023-06-28T10:09:54.357Z,1089.00
2023-06-28T10:10:54.437Z,1089.00
2023-06-28T10:11:54.458Z,1058.00
2023-06-28T10:12:54.528Z,1053.00
2023-06-28T10:13:54.566Z,1039.00
2023-06-28T10:14:55.213Z,1042.00
2023-06-28T10:15:54.628Z,1061.00
2023-06-28T10:16:54.699Z,1053.00
2023-06-28T10:17:54.826Z,1057.00
2023-06-28T10:18:54.762Z,1085.00
2023-06-28T10:19:54.830Z,1077.00
2023-06-28T10:20:56.422Z,1058.00
2023-06-28T10:21:54.898Z,1044.00
2023-06-28T10:22:54.954Z,1062.00
2023-06-28T10:23:54.976Z,1091.00
2023-06-28T10:24:55.044Z,1088.00
2023-06-28T10:25:55.086Z,1080.00
2023-06-28T10:26:55.128Z,1048.00
2023-06-28T10:27:55.156Z,1051.00
2023-06-28T10:28:55.175Z,1037.00
2023-06-28T10:29:55.285Z,1036.00
2023-06-28T10:30:55.257Z,1020.00
2023-06-28T10:31:55.348Z,1011.00
2023-06-28T10:32:55.441Z,1006.00
2023-06-28T10:33:55.359Z,1001.00
2023-06-28T10:34:55.417Z,987.00
2023-06-28T10:35:55.462Z,993.00
2023-06-28T10:36:55.511Z,989.00
2023-06-28T10:37:55.530Z,993.00
2023-06-28T10:38:55.580Z,986.00
2023-06-28T10:39:55.584Z,983.00
2023-06-28T10:40:55.636Z,979.00
2023-06-28T10:41:55.686Z,972.00
2023-06-28T10:42:55.690Z,960.00
2023-06-28T10:43:55.755Z,958.00
2023-06-28T10:44:55.764Z,953.00
2023-06-28T10:45:55.789Z,979.00
2023-06-28T10:46:55.862Z,977.00
2023-06-28T10:47:55.922Z,961.00
2023-06-28T10:48:55.890Z,945.00
2023-06-28T10:49:55.908Z,920.00
2023-06-28T10:50:55.942Z,922.00
2023-06-28T10:51:55.947Z,943.00
2023-06-28T10:52:55.944Z,929.00
2023-06-28T10:53:55.996Z,954.00
2023-06-28T10:54:56.835Z,933.00
2023-06-28T10:55:56.025Z,933.00
2023-06-28T10:56:56.048Z,957.00
2023-06-28T10:57:56.057Z,959.00
2023-06-28T10:58:56.089Z,932.00
2023-06-28T10:59:56.069Z,944.00
2023-06-28T11:00:56.173Z,956.00
2023-06-28T11:01:56.212Z,950.00
2023-06-28T11:02:56.182Z,928.00
2023-06-28T11:03:56.127Z,938.00
2023-06-28T11:04:56.186Z,946.00
2023-06-28T11:05:56.165Z,987.00
2023-06-28T11:06:56.164Z,1016.00
2023-06-28T11:07:56.159Z,1035.00
2023-06-28T11:08:56.159Z,1002.00
2023-06-28T11:09:56.158Z,938.00
2023-06-28T11:10:56.253Z,898.00
2023-06-28T11:11:56.205Z,873.00
2023-06-28T11:12:56.206Z,834.00
2023-06-28T11:13:56.218Z,825.00
2023-06-28T11:14:56.183Z,827.00
2023-06-28T11:15:56.258Z,841.00
2023-06-28T11:16:56.236Z,830.00
2023-06-28T11:17:56.266Z,791.00
2023-06-28T11:18:56.253Z,793.00
2023-06-28T11:19:56.229Z,758.00
2023-06-28T11:20:56.236Z,745.00
2023-06-28T11:21:56.290Z,755.00
2023-06-28T11:22:56.270Z,766.00
2023-06-28T11:23:56.350Z,740.00
2023-06-28T11:24:56.281Z,771.00
2023-06-28T11:25:56.276Z,803.00
2023-06-28T11:26:56.289Z,773.00
2023-06-28T11:27:56.333Z,716.00
2023-06-28T11:28:56.341Z,698.00
2023-06-28T11:29:56.285Z,683.00
2023-06-28T11:30:56.399Z,660.00
2023-06-28T11:31:56.343Z,667.00
2023-06-28T11:32:56.343Z,673.00
2023-06-28T11:33:56.306Z,661.00
2023-06-28T11:34:56.398Z,659.00
2023-06-28T11:35:56.304Z,688.00
2023-06-28T11:36:57.762Z,691.00
2023-06-28T11:37:56.298Z,656.00
2023-06-28T11:38:56.319Z,647.00
2023-06-28T11:39:56.307Z,655.00
2023-06-28T11:40:56.286Z,660.00
2023-06-28T11:41:56.298Z,680.00
2023-06-28T11:42:56.290Z,663.00
2023-06-28T11:43:56.276Z,695.00
2023-06-28T11:44:56.285Z,696.00
2023-06-28T11:45:56.271Z,656.00
2023-06-28T11:46:56.266Z,642.00
2023-06-28T11:47:56.402Z,624.00
2023-06-28T11:48:56.256Z,625.00
2023-06-28T11:49:56.335Z,647.00
2023-06-28T11:50:56.294Z,639.00
2023-06-28T11:51:56.230Z,616.00
2023-06-28T11:52:56.236Z,603.00
2023-06-28T11:53:56.247Z,602.00
2023-06-28T11:54:56.247Z,602.00
2023-06-28T11:55:56.256Z,601.00
2023-06-28T11:56:56.264Z,604.00
2023-06-28T11:57:56.228Z,605.00
2023-06-28T11:58:56.265Z,604.00
2023-06-28T11:59:56.228Z,600.00
2023-06-28T12:00:56.260Z,625.00
2023-06-28T12:01:56.226Z,626.00
2023-06-28T12:02:56.241Z,632.00
2023-06-28T12:03:56.283Z,650.00
2023-06-28T12:04:56.374Z,657.00
2023-06-28T12:05:56.197Z,686.00
2023-06-28T12:06:56.283Z,699.00
2023-06-28T12:07:56.253Z,678.00
2023-06-28T12:08:56.253Z,702.00
2023-06-28T12:09:56.257Z,678.00
2023-06-28T12:10:56.306Z,693.00
2023-06-28T12:11:56.296Z,684.00
2023-06-28T12:12:56.328Z,704.00
2023-06-28T12:13:56.338Z,682.00
2023-06-28T12:14:56.385Z,709.00
2023-06-28T12:15:56.425Z,663.00
2023-06-28T12:16:56.628Z,656.00
2023-06-28T12:17:56.528Z,660.00
2023-06-28T12:18:56.452Z,639.00
2023-06-28T12:19:56.503Z,618.00
2023-06-28T12:20:56.552Z,620.00